createdAt,value
2022-12-09T00:00:38.340Z,8.10
2022-12-09T00:01:38.283Z,8.60
2022-12-09T00:02:38.743Z,7.70
2022-12-09T00:03:38.406Z,7.70
2022-12-09T00:04:38.481Z,8.50
2022-12-09T00:05:38.273Z,8.70
2022-12-09T00:06:38.368Z,8.50
2022-12-09T00:07:38.399Z,8.00
2022-12-09T00:08:38.514Z,8.60
2022-12-09T00:09:38.252Z,8.00
2022-12-09T00:10:38.270Z,8.40
2022-12-09T00:11:38.418Z,9.00
2022-12-09T00:12:38.418Z,8.60
2022-12-09T00:13:38.456Z,7.60
2022-12-09T00:14:38.164Z,8.30
2022-12-09T00:15:38.199Z,8.20
2022-12-09T00:16:38.262Z,8.20
2022-12-09T00:17:38.351Z,7.70
2022-12-09T00:18:38.262Z,7.80
2022-12-09T00:19:38.233Z,8.70
2022-12-09T00:20:38.192Z,8.20
2022-12-09T00:21:38.130Z,8.10
2022-12-09T00:22:38.320Z,7.50
2022-12-09T00:23:38.217Z,8.20
2022-12-09T00:24:38.228Z,8.00
2022-12-09T00:25:38.049Z,8.30
2022-12-09T00:26:38.068Z,7.70
2022-12-09T00:27:38.266Z,8.60
2022-12-09T00:28:38.148Z,8.40
2022-12-09T00:29:38.065Z,7.80
2022-12-09T00:30:38.244Z,7.60
2022-12-09T00:31:38.392Z,7.60
2022-12-09T00:32:38.074Z,8.00
2022-12-09T00:33:37.969Z,8.60
2022-12-09T00:34:38.159Z,8.90
2022-12-09T00:35:37.957Z,8.40
2022-12-09T00:36:37.932Z,8.90
2022-12-09T00:37:38.106Z,8.70
2022-12-09T00:38:38.161Z,8.20
2022-12-09T00:39:37.926Z,8.40
2022-12-09T00:40:38.024Z,9.30
2022-12-09T00:41:37.950Z,8.60
2022-12-09T00:42:37.880Z,8.80
2022-12-09T00:43:38.070Z,8.80
2022-12-09T00:44:37.881Z,9.10
2022-12-09T00:45:38.033Z,8.80
2022-12-09T00:46:37.929Z,8.30
2022-12-09T00:47:38.137Z,9.30
2022-12-09T00:48:38.051Z,9.30
2022-12-09T00:49:37.842Z,8.70
2022-12-09T00:50:38.021Z,9.20
2022-12-09T00:51:37.815Z,9.00
2022-12-09T00:52:37.817Z,8.40
2022-12-09T00:53:37.783Z,9.10
2022-12-09T00:54:37.897Z,9.20
2022-12-09T00:55:38.009Z,8.80
2022-12-09T00:56:37.787Z,9.10
2022-12-09T00:57:37.740Z,9.20
2022-12-09T00:58:37.765Z,9.30
2022-12-09T00:59:37.867Z,9.60
2022-12-09T01:00:37.726Z,9.60
2022-12-09T01:01:37.960Z,9.40
2022-12-09T01:02:38.100Z,9.60
2022-12-09T01:03:37.761Z,9.80
2022-12-09T01:04:37.992Z,9.80
2022-12-09T01:05:37.909Z,10.10
2022-12-09T01:06:37.858Z,9.10
2022-12-09T01:07:37.738Z,10.20
2022-12-09T01:08:39.401Z,9.70
2022-12-09T01:09:38.764Z,9.60
2022-12-09T01:10:37.869Z,9.30
2022-12-09T01:11:37.690Z,9.40
2022-12-09T01:12:37.621Z,10.20
2022-12-09T01:13:37.857Z,10.20
2022-12-09T01:14:37.632Z,9.90
2022-12-09T01:15:37.679Z,9.20
2022-12-09T01:16:37.692Z,9.80
2022-12-09T01:17:37.631Z,10.00
2022-12-09T01:18:37.533Z,9.90
2022-12-09T01:19:37.792Z,10.00
2022-12-09T01:20:37.522Z,9.80
2022-12-09T01:21:37.507Z,9.40
2022-12-09T01:22:37.517Z,9.80
2022-12-09T01:23:37.703Z,10.60
2022-12-09T01:24:37.494Z,9.70
2022-12-09T01:25:37.576Z,9.40
2022-12-09T01:26:37.647Z,10.00
2022-12-09T01:27:37.524Z,10.00
2022-12-09T01:28:37.707Z,9.70
2022-12-09T01:29:37.426Z,9.80
2022-12-09T01:30:37.415Z,10.20
2022-12-09T01:31:37.507Z,9.30
2022-12-09T01:32:37.420Z,9.90
2022-12-09T01:33:37.381Z,10.50
2022-12-09T01:34:37.676Z,10.10
2022-12-09T01:35:37.536Z,10.60
2022-12-09T01:36:37.535Z,10.80
2022-12-09T01:37:37.410Z,9.70
2022-12-09T01:38:37.332Z,10.60
2022-12-09T01:39:37.338Z,10.50
2022-12-09T01:40:37.478Z,10.60
2022-12-09T01:41:37.319Z,10.40
2022-12-09T01:42:37.459Z,10.10
2022-12-09T01:43:37.277Z,10.20
2022-12-09T01:44:37.544Z,10.40
2022-12-09T01:45:37.499Z,10.10
2022-12-09T01:46:37.530Z,10.40
2022-12-09T01:47:37.489Z,10.40
2022-12-09T01:48:37.578Z,10.20
2022-12-09T01:49:37.385Z,10.10
2022-12-09T01:50:37.249Z,10.10
2022-12-09T01:51:37.364Z,10.40
2022-12-09T01:52:37.221Z,10.40
2022-12-09T01:53:37.440Z,10.60
2022-12-09T01:54:37.175Z,10.30
2022-12-09T01:55:37.195Z,10.30
2022-12-09T01:56:37.255Z,9.80
2022-12-09T01:57:37.324Z,9.90
2022-12-09T01:58:37.330Z,10.70
2022-12-09T01:59:37.256Z,10.00
2022-12-09T02:00:37.115Z,9.90
2022-12-09T02:01:37.501Z,9.70
2022-12-09T02:02:37.283Z,9.80
2022-12-09T02:03:37.256Z,10.20
2022-12-09T02:04:37.231Z,10.70
2022-12-09T02:05:37.084Z,10.00
2022-12-09T02:06:37.071Z,10.70
2022-12-09T02:07:37.101Z,10.50
2022-12-09T02:08:37.238Z,10.40
2022-12-09T02:09:37.026Z,11.00
2022-12-09T02:10:37.094Z,10.50
2022-12-09T02:11:37.042Z,10.10
2022-12-09T02:12:37.032Z,10.80
2022-12-09T02:13:37.045Z,10.80
2022-12-09T02:14:38.227Z,10.70
2022-12-09T02:15:36.999Z,10.30
2022-12-09T02:16:37.276Z,11.00
2022-12-09T02:17:36.994Z,10.60
2022-12-09T02:18:37.298Z,10.50
2022-12-09T02:19:36.949Z,10.90
2022-12-09T02:20:36.936Z,10.80
2022-12-09T02:21:37.027Z,10.50
2022-12-09T02:22:36.959Z,10.10
2022-12-09T02:23:36.875Z,10.10
2022-12-09T02:24:36.906Z,10.40
2022-12-09T02:25:37.028Z,10.00
2022-12-09T02:26:36.873Z,9.70
2022-12-09T02:27:37.129Z,10.50
2022-12-09T02:28:37.194Z,10.10
2022-12-09T02:29:36.828Z,10.60
2022-12-09T02:30:36.822Z,10.60
2022-12-09T02:31:37.236Z,10.70
2022-12-09T02:32:37.087Z,10.80
2022-12-09T02:33:37.210Z,11.20
2022-12-09T02:34:36.829Z,11.00
2022-12-09T02:35:36.773Z,10.60
2022-12-09T02:36:37.794Z,11.00
2022-12-09T02:37:36.784Z,11.60
2022-12-09T02:38:36.973Z,11.20
2022-12-09T02:39:36.747Z,11.40
2022-12-09T02:40:37.952Z,11.50
2022-12-09T02:41:36.774Z,11.80
2022-12-09T02:42:36.730Z,11.30
2022-12-09T02:43:36.775Z,11.40
2022-12-09T02:44:36.686Z,10.90
2022-12-09T02:45:37.734Z,10.70
2022-12-09T02:46:36.971Z,10.60
2022-12-09T02:47:36.876Z,10.90
2022-12-09T02:48:37.079Z,11.10
2022-12-09T02:49:36.806Z,10.10
2022-12-09T02:50:36.813Z,10.80
2022-12-09T02:51:36.654Z,10.00
2022-12-09T02:52:36.936Z,10.10
2022-12-09T02:53:36.590Z,10.70
2022-12-09T02:54:36.587Z,10.70
2022-12-09T02:55:36.845Z,10.50
2022-12-09T02:56:36.590Z,10.80
2022-12-09T02:57:36.615Z,10.40
2022-12-09T02:58:36.765Z,11.50
2022-12-09T02:59:36.607Z,12.20
2022-12-09T03:00:36.733Z,11.40
2022-12-09T03:01:36.707Z,11.30
2022-12-09T03:02:36.726Z,11.20
2022-12-09T03:03:36.967Z,11.10
2022-12-09T03:04:36.577Z,11.30
2022-12-09T03:05:36.777Z,12.10
2022-12-09T03:06:36.756Z,11.30
2022-12-09T03:08:08.438Z,10.70
2022-12-09T03:08:36.856Z,11.20
2022-12-09T03:09:36.615Z,10.40
2022-12-09T03:10:36.813Z,11.40
2022-12-09T03:11:36.541Z,10.80
2022-12-09T03:12:36.626Z,10.90
2022-12-09T03:13:36.624Z,10.60
2022-12-09T03:14:36.657Z,10.80
2022-12-09T03:15:37.389Z,11.00
2022-12-09T03:16:36.736Z,12.00
2022-12-09T03:17:36.391Z,11.40
2022-12-09T03:18:36.617Z,11.10
2022-12-09T03:19:36.357Z,10.80
2022-12-09T03:20:36.409Z,10.90
2022-12-09T03:21:36.432Z,10.60
2022-12-09T03:22:36.421Z,11.00
2022-12-09T03:23:36.355Z,10.20
2022-12-09T03:24:36.387Z,10.20
2022-12-09T03:25:36.624Z,9.90
2022-12-09T03:26:36.624Z,11.00
2022-12-09T03:27:36.571Z,10.10
2022-12-09T03:28:36.278Z,11.00
2022-12-09T03:29:36.266Z,10.30
2022-12-09T03:30:36.267Z,10.70
2022-12-09T03:31:36.391Z,10.50
2022-12-09T03:32:36.343Z,10.70
2022-12-09T03:33:36.474Z,10.90
2022-12-09T03:34:36.295Z,11.30
2022-12-09T03:35:36.289Z,10.90
2022-12-09T03:36:36.187Z,10.40
2022-12-09T03:37:36.397Z,10.60
2022-12-09T03:38:36.168Z,10.50
2022-12-09T03:39:36.393Z,11.00
2022-12-09T03:40:36.451Z,11.60
2022-12-09T03:41:36.208Z,11.50
2022-12-09T03:42:36.237Z,12.30
2022-12-09T03:43:36.129Z,11.60
2022-12-09T03:44:36.306Z,12.20
2022-12-09T03:45:36.298Z,11.40
2022-12-09T03:46:36.317Z,13.10
2022-12-09T03:47:36.392Z,11.40
2022-12-09T03:48:36.368Z,11.70
2022-12-09T03:49:36.072Z,12.60
2022-12-09T03:50:36.382Z,12.40
2022-12-09T03:51:36.368Z,12.50
2022-12-09T03:52:36.120Z,11.70
2022-12-09T03:53:36.184Z,11.60
2022-12-09T03:54:36.122Z,11.60
2022-12-09T03:55:36.195Z,12.00
2022-12-09T03:56:36.311Z,11.50
2022-12-09T03:57:36.322Z,11.70
2022-12-09T03:58:35.989Z,11.90
2022-12-09T03:59:36.015Z,10.60
2022-12-09T04:00:36.099Z,11.00
2022-12-09T04:01:36.294Z,10.60
2022-12-09T04:02:36.053Z,11.10
2022-12-09T04:03:36.129Z,11.20
2022-12-09T04:04:36.033Z,10.80
2022-12-09T04:05:35.952Z,10.20
2022-12-09T04:06:35.872Z,11.50
2022-12-09T04:07:35.929Z,11.70
2022-12-09T04:08:35.916Z,11.20
2022-12-09T04:09:36.056Z,11.60
2022-12-09T04:10:35.872Z,11.30
2022-12-09T04:11:36.185Z,12.00
2022-12-09T04:12:35.956Z,11.70
2022-12-09T04:13:35.846Z,10.80
2022-12-09T04:14:35.892Z,12.50
2022-12-09T04:15:36.062Z,12.40
2022-12-09T04:16:36.099Z,12.40
2022-12-09T04:17:35.948Z,11.90
2022-12-09T04:18:35.906Z,11.80
2022-12-09T04:19:35.943Z,11.50
2022-12-09T04:20:35.790Z,12.10
2022-12-09T04:21:35.901Z,11.90
2022-12-09T04:22:35.800Z,12.40
2022-12-09T04:23:40.991Z,11.60
2022-12-09T04:24:36.947Z,12.50
2022-12-09T04:25:36.089Z,12.60
2022-12-09T04:26:35.716Z,12.10
2022-12-09T04:27:35.756Z,11.80
2022-12-09T04:28:36.736Z,12.10
2022-12-09T04:29:35.776Z,11.80
2022-12-09T04:30:36.037Z,11.30
2022-12-09T04:31:35.915Z,12.30
2022-12-09T04:32:35.803Z,12.30
2022-12-09T04:33:35.748Z,12.10
2022-12-09T04:34:35.635Z,12.00
2022-12-09T04:35:35.614Z,11.70
2022-12-09T04:36:35.660Z,12.30
2022-12-09T04:37:35.629Z,12.80
2022-12-09T04:38:35.629Z,12.80
2022-12-09T04:39:36.054Z,12.60
2022-12-09T04:40:35.598Z,13.00
2022-12-09T04:41:35.544Z,13.30
2022-12-09T04:42:35.994Z,12.80
2022-12-09T04:43:35.727Z,13.50
2022-12-09T04:44:35.825Z,12.50
2022-12-09T04:45:35.698Z,12.80
2022-12-09T04:46:35.886Z,13.10
2022-12-09T04:47:35.959Z,13.20
2022-12-09T04:48:35.615Z,13.10
2022-12-09T04:49:35.660Z,13.00
2022-12-09T04:50:35.815Z,13.00
2022-12-09T04:51:39.435Z,12.50
2022-12-09T04:52:36.764Z,13.00
2022-12-09T04:53:35.682Z,12.90
2022-12-09T04:54:35.653Z,12.20
2022-12-09T04:55:35.463Z,12.60
2022-12-09T04:56:35.410Z,11.90
2022-12-09T04:57:35.423Z,11.70
2022-12-09T04:58:35.535Z,12.30
2022-12-09T04:59:35.542Z,11.30
2022-12-09T05:00:35.548Z,10.90
2022-12-09T05:01:35.569Z,11.40
2022-12-09T05:02:35.659Z,11.60
2022-12-09T05:03:35.443Z,11.30
2022-12-09T05:04:35.871Z,11.20
2022-12-09T05:05:35.604Z,12.20
2022-12-09T05:06:35.429Z,12.50
2022-12-09T05:07:35.728Z,11.80
2022-12-09T05:08:35.845Z,12.00
2022-12-09T05:09:35.333Z,11.40
2022-12-09T05:10:35.523Z,13.00
2022-12-09T05:11:35.391Z,12.80
2022-12-09T05:12:35.500Z,12.90
2022-12-09T05:13:35.351Z,12.60
2022-12-09T05:14:35.632Z,12.80
2022-12-09T05:15:35.650Z,13.40
2022-12-09T05:16:35.280Z,14.00
2022-12-09T05:17:35.262Z,12.80
2022-12-09T05:18:35.377Z,14.40
2022-12-09T05:19:35.571Z,14.10
2022-12-09T05:20:35.445Z,13.70
2022-12-09T05:21:35.247Z,14.30
2022-12-09T05:22:35.282Z,14.30
2022-12-09T05:23:35.178Z,13.80
2022-12-09T05:24:35.362Z,13.70
2022-12-09T05:25:35.148Z,15.20
2022-12-09T05:26:35.175Z,14.30
2022-12-09T05:27:35.492Z,14.40
2022-12-09T05:28:35.514Z,13.50
2022-12-09T05:29:35.181Z,14.90
2022-12-09T05:30:35.268Z,15.30
2022-12-09T05:31:35.544Z,14.50
2022-12-09T05:32:35.097Z,14.70
2022-12-09T05:33:35.242Z,14.70
2022-12-09T05:34:35.236Z,15.60
2022-12-09T05:35:42.573Z,14.80
2022-12-09T05:36:37.088Z,15.30
2022-12-09T05:37:35.101Z,14.90
2022-12-09T05:38:35.404Z,16.30
2022-12-09T05:39:35.106Z,15.50
2022-12-09T05:40:35.352Z,16.00
2022-12-09T05:41:35.394Z,15.60
2022-12-09T05:42:40.938Z,14.90
2022-12-09T05:43:36.219Z,16.10
2022-12-09T05:44:35.027Z,15.00
2022-12-09T05:45:35.072Z,15.70
2022-12-09T05:46:35.300Z,15.20
2022-12-09T05:47:35.358Z,15.10
2022-12-09T05:48:35.380Z,14.00
2022-12-09T05:49:35.473Z,12.70
2022-12-09T05:50:34.892Z,12.70
2022-12-09T05:51:35.145Z,13.00
2022-12-09T05:52:35.207Z,12.80
2022-12-09T05:53:35.294Z,12.10
2022-12-09T05:54:35.282Z,13.10
2022-12-09T05:55:35.096Z,12.80
2022-12-09T05:56:35.173Z,13.00
2022-12-09T05:57:35.127Z,12.60
2022-12-09T05:58:34.980Z,13.30
2022-12-09T05:59:34.938Z,12.70
2022-12-09T06:00:34.784Z,13.10
2022-12-09T06:01:35.324Z,12.50
2022-12-09T06:02:34.949Z,12.10
2022-12-09T06:03:35.133Z,12.60
2022-12-09T06:04:35.033Z,12.80
2022-12-09T06:05:35.263Z,12.20
2022-12-09T06:06:35.025Z,12.40
2022-12-09T06:07:35.016Z,12.30
2022-12-09T06:08:34.867Z,12.10
2022-12-09T06:09:34.797Z,11.40
2022-12-09T06:10:34.938Z,12.50
2022-12-09T06:11:34.891Z,12.90
2022-12-09T06:12:35.053Z,11.80
2022-12-09T06:13:34.735Z,11.80
2022-12-09T06:14:34.844Z,12.30
2022-12-09T06:15:35.107Z,12.00
2022-12-09T06:16:34.871Z,12.30
2022-12-09T06:17:35.018Z,11.80
2022-12-09T06:18:35.255Z,11.50
2022-12-09T06:19:35.074Z,11.30
2022-12-09T06:20:34.831Z,11.30
2022-12-09T06:21:34.750Z,10.40
2022-12-09T06:22:34.608Z,10.40
2022-12-09T06:23:34.881Z,11.20
2022-12-09T06:24:34.627Z,11.00
2022-12-09T06:25:34.947Z,10.80
2022-12-09T06:26:34.929Z,10.50
2022-12-09T06:27:34.529Z,10.90
2022-12-09T06:28:34.741Z,11.00
2022-12-09T06:29:34.829Z,11.40
2022-12-09T06:30:34.825Z,11.20
2022-12-09T06:31:34.976Z,11.10
2022-12-09T06:32:34.620Z,11.80
2022-12-09T06:33:54.261Z,12.50
2022-12-09T06:34:35.747Z,12.20
2022-12-09T06:35:36.074Z,12.10
2022-12-09T06:36:34.507Z,11.80
2022-12-09T06:37:34.437Z,12.30
2022-12-09T06:38:34.675Z,12.40
2022-12-09T06:39:34.803Z,12.30
2022-12-09T06:40:34.669Z,12.40
2022-12-09T06:41:34.592Z,12.30
2022-12-09T06:42:34.852Z,12.90
2022-12-09T06:43:34.612Z,13.10
2022-12-09T06:44:34.767Z,13.70
2022-12-09T06:45:34.404Z,14.20
2022-12-09T06:46:34.537Z,14.30
2022-12-09T06:47:34.605Z,13.70
2022-12-09T06:48:34.589Z,13.50
2022-12-09T06:49:34.532Z,13.10
2022-12-09T06:50:34.368Z,12.90
2022-12-09T06:51:34.495Z,13.30
2022-12-09T06:52:34.501Z,13.50
2022-12-09T06:53:34.301Z,12.80
2022-12-09T06:54:34.670Z,12.40
2022-12-09T06:55:34.366Z,12.50
2022-12-09T06:56:34.585Z,13.70
2022-12-09T06:57:34.556Z,13.00
2022-12-09T06:58:34.448Z,13.00
2022-12-09T06:59:34.602Z,13.10
2022-12-09T07:00:34.547Z,13.10
2022-12-09T07:01:34.427Z,13.10
2022-12-09T07:02:36.071Z,13.00
2022-12-09T07:03:35.643Z,12.30
2022-12-09T07:04:34.471Z,13.40
2022-12-09T07:05:34.439Z,12.60
2022-12-09T07:06:34.541Z,12.70
2022-12-09T07:07:34.500Z,13.40
2022-12-09T07:08:34.294Z,13.50
2022-12-09T07:09:34.197Z,13.20
2022-12-09T07:10:34.505Z,13.60
2022-12-09T07:11:34.372Z,12.80
2022-12-09T07:12:34.160Z,13.80
2022-12-09T07:13:34.425Z,13.20
2022-12-09T07:14:34.400Z,18.90
2022-12-09T07:15:34.172Z,16.30
2022-12-09T07:16:34.414Z,16.50
2022-12-09T07:17:35.404Z,19.20
2022-12-09T07:18:34.439Z,17.00
2022-12-09T07:19:34.537Z,15.60
2022-12-09T07:20:34.023Z,14.90
2022-12-09T07:21:34.503Z,14.00
2022-12-09T07:22:34.310Z,14.80
2022-12-09T07:23:34.167Z,13.90
2022-12-09T07:24:34.055Z,13.60
2022-12-09T07:25:34.318Z,14.10
2022-12-09T07:26:34.447Z,13.90
2022-12-09T07:27:33.967Z,13.80
2022-12-09T07:28:33.996Z,16.40
2022-12-09T07:29:34.223Z,14.30
2022-12-09T07:30:34.008Z,16.00
2022-12-09T07:31:34.470Z,14.60
2022-12-09T07:32:33.997Z,16.30
2022-12-09T07:33:34.369Z,17.20
2022-12-09T07:34:34.160Z,15.00
2022-12-09T07:35:34.044Z,15.00
2022-12-09T07:36:33.863Z,14.70
2022-12-09T07:37:34.238Z,14.10
2022-12-09T07:38:34.033Z,12.90
2022-12-09T07:39:34.149Z,13.50
2022-12-09T07:40:34.132Z,13.40
2022-12-09T07:41:33.853Z,14.60
2022-12-09T07:42:34.182Z,15.00
2022-12-09T07:43:34.180Z,15.80
2022-12-09T07:44:33.826Z,16.00
2022-12-09T07:45:34.220Z,16.70
2022-12-09T07:46:34.105Z,22.70
2022-12-09T07:47:34.199Z,16.50
2022-12-09T07:48:34.283Z,18.10
2022-12-09T07:49:34.183Z,15.30
2022-12-09T07:50:33.882Z,20.00
2022-12-09T07:51:34.178Z,22.70
2022-12-09T07:52:33.855Z,21.30
2022-12-09T07:53:33.921Z,19.70
2022-12-09T07:54:33.818Z,15.60
2022-12-09T07:55:34.015Z,17.40
2022-12-09T07:56:33.774Z,16.90
2022-12-09T07:57:34.107Z,21.30
2022-12-09T07:58:33.705Z,17.90
2022-12-09T07:59:33.699Z,16.10
2022-12-09T08:00:34.049Z,17.90
2022-12-09T08:01:33.822Z,21.30
2022-12-09T08:02:33.711Z,23.20
2022-12-09T08:03:34.147Z,16.00
2022-12-09T08:04:33.826Z,16.30
2022-12-09T08:05:33.855Z,20.70
2022-12-09T08:06:34.062Z,15.30
2022-12-09T08:07:37.327Z,14.80
2022-12-09T08:08:33.944Z,13.60
2022-12-09T08:09:33.931Z,14.50
2022-12-09T08:10:33.958Z,14.10
2022-12-09T08:11:34.088Z,14.10
2022-12-09T08:12:33.856Z,13.90
2022-12-09T08:13:33.603Z,14.10
2022-12-09T08:14:33.603Z,16.20
2022-12-09T08:15:33.505Z,17.20
2022-12-09T08:16:33.657Z,15.60
2022-12-09T08:17:33.666Z,14.00
2022-12-09T08:18:33.656Z,17.50
2022-12-09T08:19:33.910Z,14.90
2022-12-09T08:20:33.636Z,19.90
2022-12-09T08:21:33.572Z,17.40
2022-12-09T08:22:33.673Z,18.10
2022-12-09T08:23:33.615Z,14.70
2022-12-09T08:24:34.074Z,19.00
2022-12-09T08:25:33.871Z,15.50
2022-12-09T08:26:34.016Z,25.50
2022-12-09T08:27:33.722Z,12.70
2022-12-09T08:28:34.127Z,17.70
2022-12-09T08:29:33.663Z,16.70
2022-12-09T08:30:33.589Z,28.40
2022-12-09T08:31:38.752Z,20.20
2022-12-09T08:32:35.735Z,14.70
2022-12-09T08:33:33.545Z,13.40
2022-12-09T08:34:33.421Z,13.30
2022-12-09T08:35:33.777Z,13.90
2022-12-09T08:36:33.282Z,11.70
2022-12-09T08:37:33.348Z,12.60
2022-12-09T08:38:33.366Z,14.90
2022-12-09T08:39:33.698Z,18.60
2022-12-09T08:40:33.695Z,14.30
2022-12-09T08:41:33.369Z,12.40
2022-12-09T08:42:33.487Z,12.30
2022-12-09T08:43:33.272Z,11.70
2022-12-09T08:44:33.595Z,12.60
2022-12-09T08:45:33.257Z,11.40
2022-12-09T08:46:33.805Z,11.50
2022-12-09T08:47:33.766Z,10.20
2022-12-09T08:48:33.581Z,10.90
2022-12-09T08:49:33.366Z,11.40
2022-12-09T08:50:34.269Z,10.90
2022-12-09T08:51:33.272Z,11.10
2022-12-09T08:52:37.243Z,10.10
2022-12-09T08:53:34.350Z,9.80
2022-12-09T08:54:33.310Z,10.60
2022-12-09T08:55:33.377Z,10.30
2022-12-09T08:56:33.530Z,10.00
2022-12-09T08:57:34.518Z,11.20
2022-12-09T08:58:33.482Z,12.00
2022-12-09T08:59:33.479Z,10.70
2022-12-09T09:00:33.066Z,11.00
2022-12-09T09:01:34.445Z,8.90
2022-12-09T09:02:34.473Z,10.30
2022-12-09T09:03:33.325Z,10.30
2022-12-09T09:04:34.721Z,10.60
2022-12-09T09:05:33.209Z,10.00
2022-12-09T09:06:33.227Z,9.90
2022-12-09T09:08:04.970Z,10.70
2022-12-09T09:08:33.029Z,11.30
2022-12-09T09:09:33.277Z,11.20
2022-12-09T09:10:33.396Z,11.80
2022-12-09T09:11:33.374Z,11.60
2022-12-09T09:12:42.097Z,12.10
2022-12-09T09:13:35.351Z,12.10
2022-12-09T09:14:32.921Z,12.00
2022-12-09T09:15:32.994Z,12.50
2022-12-09T09:16:33.036Z,12.00
2022-12-09T09:17:33.261Z,11.40
2022-12-09T09:18:33.351Z,11.80
2022-12-09T09:19:33.405Z,11.60
2022-12-09T09:20:32.930Z,12.20
2022-12-09T09:21:33.108Z,12.10
2022-12-09T09:22:33.327Z,12.40
2022-12-09T09:23:33.309Z,12.50
2022-12-09T09:24:33.226Z,13.00
2022-12-09T09:25:33.226Z,12.60
2022-12-09T09:26:33.025Z,12.80
2022-12-09T09:27:33.505Z,13.60
2022-12-09T09:28:32.851Z,13.30
2022-12-09T09:29:33.009Z,13.00
2022-12-09T09:30:33.112Z,13.30
2022-12-09T09:31:32.887Z,13.30
2022-12-09T09:32:33.015Z,13.10
2022-12-09T09:33:33.229Z,13.70
2022-12-09T09:34:32.798Z,12.60
2022-12-09T09:35:32.992Z,12.50
2022-12-09T09:36:32.774Z,11.90
2022-12-09T09:37:33.030Z,12.90
2022-12-09T09:38:32.852Z,12.10
2022-12-09T09:39:32.872Z,12.10
2022-12-09T09:40:33.173Z,11.60
2022-12-09T09:41:32.694Z,12.20
2022-12-09T09:42:32.631Z,11.20
2022-12-09T09:43:32.844Z,12.20
2022-12-09T09:44:33.082Z,12.20
2022-12-09T09:45:32.660Z,11.60
2022-12-09T09:46:34.272Z,11.90
2022-12-09T09:47:37.763Z,11.20
2022-12-09T09:48:36.121Z,11.50
2022-12-09T09:49:34.660Z,13.10
2022-12-09T09:50:33.831Z,11.00
2022-12-09T09:51:34.376Z,11.00
2022-12-09T09:52:33.682Z,11.80
2022-12-09T09:53:32.871Z,11.00
2022-12-09T09:54:32.987Z,12.30
2022-12-09T09:55:32.554Z,12.00
2022-12-09T09:56:32.631Z,11.90
2022-12-09T09:57:32.684Z,11.40
2022-12-09T09:58:32.589Z,11.90
2022-12-09T09:59:32.631Z,11.40
2022-12-09T10:00:32.654Z,11.80
2022-12-09T10:01:32.804Z,12.00
2022-12-09T10:02:33.160Z,12.50
2022-12-09T10:03:32.723Z,11.80
2022-12-09T10:04:32.577Z,12.20
2022-12-09T10:05:32.996Z,11.70
2022-12-09T10:06:33.013Z,12.40
2022-12-09T10:07:32.736Z,12.40
2022-12-09T10:08:32.762Z,13.60
2022-12-09T10:09:32.607Z,12.60
2022-12-09T10:10:32.541Z,12.40
2022-12-09T10:11:33.063Z,12.40
2022-12-09T10:12:32.781Z,12.40
2022-12-09T10:13:33.016Z,11.50
2022-12-09T10:14:32.540Z,11.80
2022-12-09T10:15:32.641Z,12.60
2022-12-09T10:16:33.788Z,11.30
2022-12-09T10:17:32.513Z,12.20
2022-12-09T10:18:32.827Z,12.30
2022-12-09T10:19:32.805Z,11.60
2022-12-09T10:20:32.643Z,12.30
2022-12-09T10:21:32.695Z,12.00
2022-12-09T10:22:32.389Z,12.40
2022-12-09T10:23:32.371Z,11.20
2022-12-09T10:24:38.684Z,12.60
2022-12-09T10:25:34.661Z,11.80
2022-12-09T10:26:32.759Z,12.40
2022-12-09T10:27:32.358Z,11.30
2022-12-09T10:28:32.580Z,11.90
2022-12-09T10:29:32.292Z,11.50
2022-12-09T10:30:39.769Z,11.30
2022-12-09T10:31:34.449Z,11.70
2022-12-09T10:32:32.515Z,11.30
2022-12-09T10:33:32.440Z,11.10
2022-12-09T10:34:32.204Z,11.90
2022-12-09T10:35:32.565Z,11.70
2022-12-09T10:36:35.700Z,10.70
2022-12-09T10:37:33.192Z,11.90
2022-12-09T10:38:32.407Z,11.50
2022-12-09T10:39:32.325Z,11.00
2022-12-09T10:40:32.219Z,11.50
2022-12-09T10:41:32.204Z,10.30
2022-12-09T10:42:35.215Z,10.30
2022-12-09T10:43:33.170Z,11.30
2022-12-09T10:44:32.115Z,12.10
2022-12-09T10:45:52.561Z,11.00
2022-12-09T10:46:34.136Z,11.40
2022-12-09T10:47:32.416Z,11.30
2022-12-09T10:48:33.376Z,11.30
2022-12-09T10:49:33.108Z,11.20
2022-12-09T10:50:32.454Z,11.30
2022-12-09T10:51:32.076Z,10.90
2022-12-09T10:52:32.477Z,11.40
2022-12-09T10:53:31.943Z,11.50
2022-12-09T10:54:32.328Z,12.60
2022-12-09T10:55:32.156Z,14.60
2022-12-09T10:56:32.418Z,12.00
2022-12-09T10:57:32.075Z,12.30
2022-12-09T10:58:31.989Z,11.50
2022-12-09T10:59:32.163Z,11.70
2022-12-09T11:00:35.051Z,12.50
2022-12-09T11:01:33.054Z,12.60
2022-12-09T11:02:31.987Z,11.60
2022-12-09T11:03:32.410Z,14.10
2022-12-09T11:04:32.037Z,12.10
2022-12-09T11:05:32.043Z,11.10
2022-12-09T11:06:32.275Z,12.50
2022-12-09T11:07:32.196Z,11.20
2022-12-09T11:08:32.195Z,12.10
2022-12-09T11:09:32.255Z,11.30
2022-12-09T11:10:32.319Z,11.60
2022-12-09T11:11:32.257Z,12.00
2022-12-09T11:12:38.496Z,12.30
2022-12-09T11:13:33.021Z,12.90
2022-12-09T11:14:31.956Z,12.40
2022-12-09T11:15:32.415Z,12.30
2022-12-09T11:16:32.171Z,12.50
2022-12-09T11:17:31.915Z,12.50
2022-12-09T11:18:32.063Z,12.30
2022-12-09T11:19:31.840Z,11.70
2022-12-09T11:20:31.919Z,12.30
2022-12-09T11:21:31.880Z,12.40
2022-12-09T11:22:31.865Z,11.90
2022-12-09T11:23:31.855Z,12.10
2022-12-09T11:24:31.820Z,12.60
2022-12-09T11:25:31.817Z,11.90
2022-12-09T11:26:31.703Z,12.30
2022-12-09T11:27:31.892Z,11.70
2022-12-09T11:28:31.981Z,11.50
2022-12-09T11:29:31.909Z,12.30
2022-12-09T11:30:31.916Z,12.30
2022-12-09T11:31:33.393Z,12.80
2022-12-09T11:32:33.126Z,12.70
2022-12-09T11:33:31.737Z,13.50
2022-12-09T11:34:31.751Z,12.80
2022-12-09T11:35:32.148Z,11.40
2022-12-09T11:36:31.634Z,13.00
2022-12-09T11:37:31.503Z,12.00
2022-12-09T11:38:31.510Z,12.90
2022-12-09T11:39:31.505Z,12.00
2022-12-09T11:40:31.646Z,12.20
2022-12-09T11:41:31.455Z,13.50
2022-12-09T11:42:31.462Z,14.00
2022-12-09T11:43:31.441Z,14.60
2022-12-09T11:44:31.427Z,13.40
2022-12-09T11:45:31.423Z,14.00
2022-12-09T11:46:31.485Z,21.70
2022-12-09T11:47:40.055Z,16.10
2022-12-09T11:48:37.353Z,12.40
2022-12-09T11:49:33.384Z,11.70
2022-12-09T11:50:31.839Z,12.20
2022-12-09T11:51:31.365Z,12.90
2022-12-09T11:52:31.360Z,12.10
2022-12-09T11:53:31.330Z,11.00
2022-12-09T11:54:31.339Z,10.70
2022-12-09T11:55:31.336Z,9.70
2022-12-09T11:56:31.298Z,11.00
2022-12-09T11:57:31.306Z,10.80
2022-12-09T11:58:31.307Z,10.60
2022-12-09T11:59:36.332Z,10.70
2022-12-09T12:00:33.269Z,9.30
2022-12-09T12:01:31.272Z,10.30
2022-12-09T12:02:31.284Z,9.90
2022-12-09T12:03:31.334Z,9.90
2022-12-09T12:04:31.233Z,10.70
2022-12-09T12:05:31.216Z,11.00
2022-12-09T12:06:31.207Z,10.60
2022-12-09T12:07:31.189Z,10.60
2022-12-09T12:08:31.296Z,11.80
2022-12-09T12:09:31.220Z,12.40
2022-12-09T12:10:31.173Z,12.60
2022-12-09T12:11:31.160Z,12.90
2022-12-09T12:12:31.177Z,12.10
2022-12-09T12:13:31.134Z,13.90
2022-12-09T12:14:31.128Z,12.90
2022-12-09T12:15:31.121Z,11.90
2022-12-09T12:16:36.084Z,12.40
2022-12-09T12:17:32.192Z,12.30
2022-12-09T12:18:31.097Z,11.40
2022-12-09T12:19:31.088Z,11.60
2022-12-09T12:20:31.050Z,11.60
2022-12-09T12:21:31.056Z,10.70
2022-12-09T12:22:31.053Z,11.30
2022-12-09T12:23:31.047Z,12.40
2022-12-09T12:24:31.041Z,12.00
2022-12-09T12:25:31.037Z,12.60
2022-12-09T12:26:31.007Z,10.50
2022-12-09T12:27:30.993Z,10.20
2022-12-09T12:28:30.987Z,10.70
2022-12-09T12:29:30.982Z,12.40
2022-12-09T12:30:30.985Z,11.20
2022-12-09T12:31:31.008Z,11.70
2022-12-09T12:32:30.956Z,11.10
2022-12-09T12:34:38.700Z,10.60
2022-12-09T12:35:31.928Z,8.10
2022-12-09T12:36:30.904Z,9.00
2022-12-09T12:37:30.895Z,8.30
2022-12-09T12:38:30.920Z,8.30
2022-12-09T12:39:30.898Z,8.90
2022-12-09T12:40:30.894Z,10.80
2022-12-09T12:41:30.885Z,9.20
2022-12-09T12:42:30.867Z,8.70
2022-12-09T12:43:30.844Z,9.40
2022-12-09T12:44:30.828Z,9.10
2022-12-09T12:45:30.897Z,9.10
2022-12-09T12:46:30.922Z,8.90
2022-12-09T12:47:30.803Z,10.70
2022-12-09T12:48:30.841Z,9.30
2022-12-09T12:49:30.787Z,8.50
2022-12-09T12:50:30.767Z,8.60
2022-12-09T12:51:30.765Z,10.80
2022-12-09T12:53:31.741Z,11.00
2022-12-09T12:54:30.759Z,11.40
2022-12-09T12:55:30.729Z,12.50
2022-12-09T12:56:30.726Z,12.60
2022-12-09T12:57:30.706Z,12.20
2022-12-09T12:58:30.713Z,13.00